createdAt,value
2018-11-14T00:00:31.511Z,96023.93
2018-11-14T00:03:01.874Z,96022.92
2018-11-14T00:05:31.125Z,96017.89
2018-11-14T00:08:00.419Z,96015.39
2018-11-14T00:10:29.608Z,96011.30
2018-11-14T00:12:58.812Z,96004.48
2018-11-14T00:15:27.889Z,96004.08
2018-11-14T00:17:57.045Z,96010.06
2018-11-14T00:20:26.239Z,96011.30
2018-11-14T00:22:55.649Z,96021.03
2018-11-14T00:25:24.915Z,96015.00
2018-11-14T00:27:54.261Z,96009.73
2018-11-14T00:30:24.686Z,95992.52
2018-11-14T00:32:54.023Z,95995.63
2018-11-14T00:35:23.215Z,95998.52
2018-11-14T00:37:52.639Z,95990.80
2018-11-14T00:40:22.039Z,95990.03
2018-11-14T00:42:51.525Z,95985.39
2018-11-14T00:45:22.000Z,95975.12
2018-11-14T00:47:51.621Z,95973.38
2018-11-14T00:50:21.338Z,95972.03
2018-11-14T00:52:50.478Z,95971.27
2018-11-14T00:55:20.973Z,95972.22
2018-11-14T00:57:51.004Z,95971.06
2018-11-14T01:00:22.527Z,95971.06
2018-11-14T01:02:51.878Z,95966.22
2018-11-14T01:05:21.149Z,95963.75
2018-11-14T01:07:50.450Z,95962.77
2018-11-14T01:10:21.194Z,95971.70
2018-11-14T01:12:51.016Z,95966.27
2018-11-14T01:15:22.662Z,95968.42
2018-11-14T01:17:51.926Z,95959.28
2018-11-14T01:20:22.230Z,95955.41
2018-11-14T01:22:51.452Z,95950.34
2018-11-14T01:25:20.867Z,95953.44
2018-11-14T01:27:50.177Z,95953.44
2018-11-14T01:30:23.178Z,95957.72
2018-11-14T01:32:52.797Z,95954.07
2018-11-14T01:35:22.171Z,95955.80
2018-11-14T01:37:51.582Z,95951.56
2018-11-14T01:40:22.798Z,95951.55
2018-11-14T01:42:54.502Z,95952.87
2018-11-14T01:45:24.010Z,95943.56
2018-11-14T01:47:53.361Z,95945.90
2018-11-14T01:50:22.586Z,95939.31
2018-11-14T01:52:51.982Z,95937.16
2018-11-14T01:55:21.744Z,95942.97
2018-11-14T01:57:50.973Z,95942.39
2018-11-14T02:00:21.727Z,95939.30
2018-11-14T02:02:51.137Z,95938.29
2018-11-14T02:05:20.617Z,95940.64
2018-11-14T02:07:49.819Z,95942.19
2018-11-14T02:10:20.090Z,95940.24
2018-11-14T02:12:49.568Z,95933.69
2018-11-14T02:15:21.906Z,95932.91
2018-11-14T02:17:51.352Z,95922.03
2018-11-14T02:20:20.856Z,95922.20
2018-11-14T02:22:50.197Z,95922.94
2018-11-14T02:25:19.456Z,95916.37
2018-11-14T02:27:48.438Z,95912.90
2018-11-14T02:30:19.686Z,95914.88
2018-11-14T02:32:49.027Z,95923.79
2018-11-14T02:35:18.315Z,95923.19
2018-11-14T02:37:47.947Z,95918.18
2018-11-14T02:40:19.139Z,95915.28
2018-11-14T02:42:48.651Z,95917.22
2018-11-14T02:45:17.919Z,95915.87
2018-11-14T02:47:47.170Z,95912.80
2018-11-14T02:50:17.432Z,95909.28
2018-11-14T02:52:46.671Z,95909.84
2018-11-14T02:55:16.837Z,95914.32
2018-11-14T02:57:46.450Z,95911.22
2018-11-14T03:00:17.582Z,95904.98
2018-11-14T03:02:46.874Z,95909.30
2018-11-14T03:05:16.386Z,95917.05
2018-11-14T03:07:45.657Z,95919.22
2018-11-14T03:10:17.286Z,95907.61
2018-11-14T03:12:46.639Z,95909.76
2018-11-14T03:15:18.642Z,95909.16
2018-11-14T03:17:48.000Z,95917.08
2018-11-14T03:20:18.341Z,95909.33
2018-11-14T03:22:47.694Z,95898.27
2018-11-14T03:25:16.882Z,95896.52
2018-11-14T03:27:46.101Z,95921.13
2018-11-14T03:30:16.487Z,95922.69
2018-11-14T03:32:46.147Z,95920.56
2018-11-14T03:35:15.849Z,95910.48
2018-11-14T03:37:45.131Z,95908.53
2018-11-14T03:40:15.396Z,95912.97
2018-11-14T03:42:44.600Z,95906.16
2018-11-14T03:45:14.788Z,95896.38
2018-11-14T03:47:44.101Z,95882.41
2018-11-14T03:50:13.324Z,95890.76
2018-11-14T03:52:42.630Z,95891.09
2018-11-14T03:55:11.929Z,95896.19
2018-11-14T03:57:41.259Z,95883.80
2018-11-14T04:00:12.774Z,95890.13
2018-11-14T04:02:42.303Z,95890.73
2018-11-14T04:05:11.666Z,95893.97
2018-11-14T04:07:41.834Z,95898.02
2018-11-14T04:10:12.906Z,95896.91
2018-11-14T04:12:42.309Z,95897.50
2018-11-14T04:15:12.803Z,95903.78
2018-11-14T04:17:41.968Z,95908.12
2018-11-14T04:20:13.386Z,95911.44
2018-11-14T04:22:42.674Z,95911.25
2018-11-14T04:25:13.949Z,95911.26
2018-11-14T04:27:43.793Z,95910.28
2018-11-14T04:30:15.558Z,95914.14
2018-11-14T04:32:45.044Z,95913.50
2018-11-14T04:35:15.172Z,95916.00
2018-11-14T04:37:44.575Z,95910.37
2018-11-14T04:40:16.685Z,95907.53
2018-11-14T04:42:45.975Z,95907.54
2018-11-14T04:45:17.645Z,95905.20
2018-11-14T04:47:46.834Z,95902.89
2018-11-14T04:50:18.035Z,95896.34
2018-11-14T04:52:48.293Z,95897.09
2018-11-14T04:55:18.709Z,95894.56
2018-11-14T04:57:48.207Z,95890.50
2018-11-14T05:00:18.357Z,95886.42
2018-11-14T05:02:48.556Z,95905.39
2018-11-14T05:05:18.978Z,95905.27
2018-11-14T05:07:48.323Z,95903.86
2018-11-14T05:10:19.958Z,95894.94
2018-11-14T05:12:49.628Z,95900.63
2018-11-14T05:15:20.915Z,95892.72
2018-11-14T05:17:50.706Z,95903.45
2018-11-14T05:20:20.732Z,95909.24
2018-11-14T05:22:50.049Z,95916.54
2018-11-14T05:25:19.642Z,95913.42
2018-11-14T05:27:48.969Z,95917.69
2018-11-14T05:30:19.667Z,95923.25
2018-11-14T05:32:49.913Z,95923.25
2018-11-14T05:35:18.868Z,95924.22
2018-11-14T05:37:48.612Z,95933.30
2018-11-14T05:40:20.035Z,95939.26
2018-11-14T05:42:49.770Z,95939.41
2018-11-14T05:45:23.386Z,95940.62
2018-11-14T05:47:52.855Z,95948.75
2018-11-14T05:50:22.941Z,95937.51
2018-11-14T05:52:52.221Z,95947.41
2018-11-14T05:55:21.521Z,95946.39
2018-11-14T05:57:51.139Z,95951.58
2018-11-14T06:00:35.158Z,95941.66
2018-11-14T06:03:05.202Z,95945.08
2018-11-14T06:05:34.498Z,95938.63
2018-11-14T06:08:03.787Z,95936.53
2018-11-14T06:10:33.014Z,95930.09
2018-11-14T06:13:02.403Z,95925.66
2018-11-14T06:15:31.950Z,95916.82
2018-11-14T06:18:01.232Z,95920.89
2018-11-14T06:20:30.439Z,95922.64
2018-11-14T06:22:59.721Z,95923.03
2018-11-14T06:25:31.236Z,95923.66
2018-11-14T06:28:01.879Z,95928.81
2018-11-14T06:30:31.280Z,95937.07
2018-11-14T06:33:01.118Z,95930.84
2018-11-14T06:35:30.435Z,95931.56
2018-11-14T06:37:59.829Z,95934.30
2018-11-14T06:40:29.245Z,95929.73
2018-11-14T06:42:58.330Z,95936.61
2018-11-14T06:45:28.829Z,95922.33
2018-11-14T06:47:59.302Z,95937.52
2018-11-14T06:50:28.576Z,95938.06
2018-11-14T06:53:01.339Z,95938.11
2018-11-14T06:55:30.560Z,95947.77
2018-11-14T06:58:00.020Z,95945.36
2018-11-14T07:00:31.231Z,95948.55
2018-11-14T07:03:01.418Z,95943.09
2018-11-14T07:05:30.889Z,95936.09
2018-11-14T07:08:00.036Z,95929.23
2018-11-14T07:10:30.774Z,95926.99
2018-11-14T07:13:05.728Z,95928.05
2018-11-14T07:15:35.692Z,95921.05
2018-11-14T07:18:05.400Z,95919.38
2018-11-14T07:20:35.937Z,95921.67
2018-11-14T07:23:05.286Z,95918.14
2018-11-14T07:25:34.710Z,95919.20
2018-11-14T07:28:03.900Z,95919.12
2018-11-14T07:30:33.566Z,95910.13
2018-11-14T07:33:04.891Z,95919.33
2018-11-14T07:35:34.132Z,95915.92
2018-11-14T07:38:43.285Z,95917.38
2018-11-14T07:41:13.826Z,95910.13
2018-11-14T07:43:43.519Z,95921.48
2018-11-14T07:46:13.233Z,95925.55
2018-11-14T07:48:42.831Z,95918.91
2018-11-14T07:51:12.254Z,95925.47
2018-11-14T07:53:41.439Z,95920.52
2018-11-14T07:56:10.707Z,95928.47
2018-11-14T07:58:39.948Z,95923.19
2018-11-14T08:01:09.455Z,95916.59
2018-11-14T08:03:38.745Z,95918.98
2018-11-14T08:06:08.106Z,95920.94
2018-11-14T08:08:37.324Z,95920.14
2018-11-14T08:11:07.139Z,95913.11
2018-11-14T08:13:37.394Z,95915.63
2018-11-14T08:16:06.875Z,95919.10
2018-11-14T08:18:36.330Z,95914.99
2018-11-14T08:21:05.730Z,95914.11
2018-11-14T08:23:35.314Z,95920.19
2018-11-14T08:26:04.948Z,95910.48
2018-11-14T08:28:34.254Z,95914.55
2018-11-14T08:31:03.510Z,95918.31
2018-11-14T08:33:32.734Z,95918.98
2018-11-14T08:36:02.055Z,95921.23
2018-11-14T08:38:31.303Z,95915.69
2018-11-14T08:41:00.513Z,95923.33
2018-11-14T08:43:29.820Z,95918.15
2018-11-14T08:48:34.886Z,95915.80
2018-11-14T08:51:04.088Z,95914.45
2018-11-14T08:53:33.246Z,95915.08
2018-11-14T08:56:02.398Z,95910.14
2018-11-14T08:58:31.545Z,95911.62
2018-11-14T09:01:00.842Z,95918.38
2018-11-14T09:03:30.068Z,95914.60
2018-11-14T09:05:59.329Z,95911.08
2018-11-14T09:08:28.591Z,95919.11
2018-11-14T09:10:58.211Z,95911.86
2018-11-14T09:13:27.431Z,95909.34
2018-11-14T09:15:56.791Z,95906.48
2018-11-14T09:18:26.208Z,95908.53
2018-11-14T09:20:55.659Z,95904.94
2018-11-14T09:23:25.534Z,95894.16
2018-11-14T09:25:54.783Z,95890.98
2018-11-14T09:28:23.986Z,95888.82
2018-11-14T09:30:53.211Z,95892.39
2018-11-14T09:33:22.455Z,95890.30
2018-11-14T09:35:51.558Z,95880.25
2018-11-14T09:38:20.891Z,95885.23
2018-11-14T09:40:50.145Z,95893.77
2018-11-14T09:43:19.414Z,95880.77
2018-11-14T09:45:48.774Z,95882.85
2018-11-14T09:48:18.027Z,95878.53
2018-11-14T09:50:47.337Z,95880.79
2018-11-14T09:53:16.514Z,95881.84
2018-11-14T09:55:45.829Z,95878.81
2018-11-14T09:58:15.175Z,95871.17
2018-11-14T10:00:44.404Z,95872.23
2018-11-14T10:03:16.067Z,95867.34
2018-11-14T10:05:45.261Z,95861.61
2018-11-14T10:08:14.520Z,95854.43
2018-11-14T10:10:43.913Z,95855.08
2018-11-14T10:13:13.174Z,95857.09
2018-11-14T10:15:42.544Z,95860.14
2018-11-14T10:18:11.651Z,95866.20
2018-11-14T10:20:40.990Z,95859.02
2018-11-14T10:23:10.254Z,95856.45
2018-11-14T10:25:39.113Z,95862.30
2018-11-14T10:28:08.938Z,95853.94
2018-11-14T10:30:38.303Z,95850.75
2018-11-14T10:33:07.671Z,95852.34
2018-11-14T10:35:37.072Z,95850.69
2018-11-14T10:38:06.817Z,95850.02
2018-11-14T10:40:36.239Z,95851.83
2018-11-14T10:43:05.593Z,95846.64
2018-11-14T10:45:34.807Z,95845.27
2018-11-14T10:48:04.165Z,95841.34
2018-11-14T10:50:33.430Z,95843.69
2018-11-14T10:53:02.726Z,95834.72
2018-11-14T10:55:32.038Z,95837.38
2018-11-14T10:58:01.215Z,95835.83
2018-11-14T11:00:35.597Z,95841.13
2018-11-14T11:03:09.715Z,95836.26
2018-11-14T11:05:43.946Z,95840.12
2018-11-14T11:08:18.959Z,95821.45
2018-11-14T11:10:52.183Z,95830.99
2018-11-14T11:13:26.528Z,95833.45
2018-11-14T11:16:00.634Z,95827.17
2018-11-14T11:18:31.487Z,95818.28
2018-11-14T11:21:00.723Z,95823.34
2018-11-14T11:23:30.236Z,95823.28
2018-11-14T11:25:59.502Z,95819.19
2018-11-14T11:28:28.780Z,95820.68
2018-11-14T11:30:58.103Z,95813.73
2018-11-14T11:33:27.401Z,95811.59
2018-11-14T11:35:56.694Z,95809.92
2018-11-14T11:38:26.210Z,95809.33
2018-11-14T11:40:55.775Z,95799.38
2018-11-14T11:43:25.004Z,95801.77
2018-11-14T11:45:54.116Z,95797.67
2018-11-14T11:48:23.521Z,95787.39
2018-11-14T11:50:52.820Z,95799.19
2018-11-14T11:53:22.456Z,95795.60
2018-11-14T11:55:51.730Z,95794.11
2018-11-14T11:58:21.008Z,95797.05
2018-11-14T12:00:50.315Z,95794.77
2018-11-14T12:03:19.390Z,95794.01
2018-11-14T12:05:48.829Z,95790.07
2018-11-14T12:08:17.865Z,95787.27
2018-11-14T12:10:47.196Z,95786.55
2018-11-14T12:13:16.539Z,95788.45
2018-11-14T12:15:45.754Z,95783.30
2018-11-14T12:18:15.041Z,95777.70
2018-11-14T12:20:44.339Z,95773.67
2018-11-14T12:23:13.594Z,95782.12
2018-11-14T12:25:42.930Z,95782.16
2018-11-14T12:28:12.350Z,95780.13
2018-11-14T12:30:41.518Z,95779.98
2018-11-14T12:33:10.842Z,95782.08
2018-11-14T12:35:40.021Z,95774.22
2018-11-14T12:38:09.391Z,95784.92
2018-11-14T12:40:38.830Z,95780.14
2018-11-14T12:43:08.354Z,95773.34
2018-11-14T12:45:37.579Z,95773.16
2018-11-14T12:48:07.081Z,95773.45
2018-11-14T12:50:36.571Z,95766.81
2018-11-14T12:53:05.891Z,95764.99
2018-11-14T12:55:34.897Z,95773.63
2018-11-14T12:58:05.821Z,95761.30
2018-11-14T13:00:35.114Z,95759.16
2018-11-14T13:03:04.523Z,95764.64
2018-11-14T13:05:33.846Z,95762.22
2018-11-14T13:08:03.339Z,95763.55
2018-11-14T13:10:32.927Z,95760.99
2018-11-14T13:13:02.381Z,95762.16
2018-11-14T13:15:31.702Z,95763.03
2018-11-14T13:18:00.862Z,95767.17
2018-11-14T13:20:30.133Z,95765.78
2018-11-14T13:22:59.405Z,95759.69
2018-11-14T13:25:28.636Z,95760.80
2018-11-14T13:27:58.447Z,95754.13
2018-11-14T13:30:27.529Z,95763.79
2018-11-14T13:32:56.661Z,95762.00
2018-11-14T13:35:26.295Z,95763.72
2018-11-14T13:37:55.504Z,95771.16
2018-11-14T13:40:25.235Z,95765.41
2018-11-14T13:42:54.546Z,95764.21
2018-11-14T13:45:23.774Z,95763.94
2018-11-14T13:47:53.299Z,95762.74
2018-11-14T13:50:23.248Z,95756.07
2018-11-14T13:52:52.597Z,95756.77
2018-11-14T13:55:22.194Z,95755.36
2018-11-14T13:57:52.235Z,95741.88
2018-11-14T14:00:22.454Z,95751.96
2018-11-14T14:02:52.818Z,95748.84
2018-11-14T14:05:23.514Z,95747.58
2018-11-14T14:07:52.921Z,95732.23
2018-11-14T14:10:22.225Z,95740.27
2018-11-14T14:12:53.010Z,95735.60
2018-11-14T14:15:23.574Z,95739.78
2018-11-14T14:17:52.846Z,95741.25
2018-11-14T14:20:52.138Z,95744.48
2018-11-14T14:23:21.467Z,95741.81
2018-11-14T14:25:50.679Z,95744.45
2018-11-14T14:28:19.904Z,95740.77
2018-11-14T14:30:49.224Z,95736.12
2018-11-14T14:33:18.292Z,95740.06
2018-11-14T14:35:47.754Z,95737.39
2018-11-14T14:38:17.126Z,95737.61
2018-11-14T14:40:46.690Z,95740.27
2018-11-14T14:43:15.799Z,95738.13
2018-11-14T14:45:45.122Z,95742.41
2018-11-14T14:48:14.279Z,95741.67
2018-11-14T14:50:43.388Z,95743.36
2018-11-14T14:53:12.640Z,95745.47
2018-11-14T14:55:41.913Z,95753.58
2018-11-14T14:58:11.431Z,95752.52
2018-11-14T15:00:40.806Z,95757.34
2018-11-14T15:03:10.349Z,95762.75
2018-11-14T15:05:39.656Z,95764.85
2018-11-14T15:08:09.074Z,95761.94
2018-11-14T15:10:38.325Z,95760.60
2018-11-14T15:13:07.756Z,95771.03
2018-11-14T15:15:37.203Z,95763.23
2018-11-14T15:18:06.547Z,95771.55
2018-11-14T15:20:35.970Z,95768.32
2018-11-14T15:23:05.194Z,95766.45
2018-11-14T15:25:34.470Z,95773.93
2018-11-14T15:28:04.074Z,95765.09
2018-11-14T15:30:33.340Z,95780.10
2018-11-14T15:33:02.824Z,95781.49
2018-11-14T15:35:32.232Z,95753.28
2018-11-14T15:38:01.444Z,95772.88
2018-11-14T15:40:31.079Z,95771.70
2018-11-14T15:43:00.367Z,95770.45
2018-11-14T15:45:30.312Z,95785.23
2018-11-14T15:47:59.709Z,95779.59
2018-11-14T15:50:30.207Z,95790.12
2018-11-14T15:53:00.178Z,95791.58
2018-11-14T15:55:29.549Z,95796.97
2018-11-14T15:57:58.919Z,95789.02
2018-11-14T16:00:29.283Z,95792.09
2018-11-14T16:02:58.599Z,95796.46
2018-11-14T16:05:29.371Z,95803.03
2018-11-14T16:07:59.827Z,95800.56
2018-11-14T16:10:30.315Z,95790.22
2018-11-14T16:12:59.760Z,95799.67
2018-11-14T16:15:32.350Z,95788.67
2018-11-14T16:18:01.569Z,95783.12
2018-11-14T16:20:30.986Z,95792.42
2018-11-14T16:23:00.134Z,95791.64
2018-11-14T16:25:29.577Z,95792.50
2018-11-14T16:28:00.225Z,95787.13
2018-11-14T16:30:32.418Z,95792.85
2018-11-14T16:33:03.151Z,95793.09
2018-11-14T16:35:32.366Z,95789.61
2018-11-14T16:38:01.691Z,95790.30
2018-11-14T16:40:32.035Z,95784.30
2018-11-14T16:43:02.661Z,95783.61
2018-11-14T16:45:32.190Z,95768.58
2018-11-14T16:48:01.439Z,95784.05
2018-11-14T16:50:30.670Z,95782.33
2018-11-14T16:52:59.869Z,95780.45
2018-11-14T16:55:29.041Z,95789.34
2018-11-14T16:57:58.702Z,95788.75
2018-11-14T17:00:30.023Z,95791.89
2018-11-14T17:02:59.415Z,95786.42
2018-11-14T17:05:29.785Z,95785.75
2018-11-14T17:07:58.841Z,95779.95
2018-11-14T17:10:28.376Z,95784.89
2018-11-14T17:12:58.893Z,95780.45
2018-11-14T17:15:28.470Z,95782.92
2018-11-14T17:17:57.740Z,95766.19
2018-11-14T17:20:26.888Z,95787.39
2018-11-14T17:22:56.352Z,95793.69
2018-11-14T17:25:25.723Z,95779.61
2018-11-14T17:27:55.107Z,95772.09
2018-11-14T17:30:25.451Z,95777.88
2018-11-14T17:32:55.085Z,95779.25
2018-11-14T17:35:24.490Z,95780.62
2018-11-14T17:37:53.770Z,95786.63
2018-11-14T17:40:27.973Z,95786.00
2018-11-14T17:42:57.300Z,95779.19
2018-11-14T17:45:27.824Z,95778.42
2018-11-14T17:47:57.637Z,95773.21
2018-11-14T17:50:28.177Z,95782.60
2018-11-14T17:52:58.015Z,95772.02
2018-11-14T17:55:27.491Z,95775.25
2018-11-14T17:57:56.898Z,95765.59
2018-11-14T18:00:27.387Z,95756.42
2018-11-14T18:02:56.762Z,95753.59
2018-11-14T18:05:27.190Z,95757.28
2018-11-14T18:07:56.534Z,95754.27
2018-11-14T18:10:26.976Z,95754.27
2018-11-14T18:12:57.262Z,95745.91
2018-11-14T18:15:26.467Z,95744.96
2018-11-14T18:17:56.326Z,95752.38
2018-11-14T18:20:27.022Z,95741.09
2018-11-14T18:22:56.676Z,95749.07
2018-11-14T18:25:26.058Z,95754.45
2018-11-14T18:27:55.434Z,95753.08
2018-11-14T18:30:26.566Z,95758.83
2018-11-14T18:32:56.661Z,95759.23
2018-11-14T18:35:26.623Z,95762.98
2018-11-14T18:37:56.515Z,95756.59
2018-11-14T18:40:27.178Z,95751.79
2018-11-14T18:42:56.448Z,95745.19
2018-11-14T18:45:27.283Z,95740.77
2018-11-14T18:47:57.121Z,95745.64
2018-11-14T18:50:26.606Z,95752.90
2018-11-14T18:52:56.005Z,95756.47
2018-11-14T18:55:26.526Z,95758.84
2018-11-14T18:57:55.969Z,95753.62
2018-11-14T19:00:26.551Z,95756.97
2018-11-14T19:02:55.929Z,95765.58
2018-11-14T19:05:25.472Z,95762.70
2018-11-14T19:07:54.610Z,95757.14
2018-11-14T19:10:25.217Z,95765.16
2018-11-14T19:12:54.562Z,95759.52
2018-11-14T19:15:26.029Z,95745.72
2018-11-14T19:17:55.449Z,95751.20
2018-11-14T19:20:26.983Z,95751.57
2018-11-14T19:22:57.002Z,95752.45
2018-11-14T19:25:28.770Z,95743.73
2018-11-14T19:27:58.098Z,95750.09
2018-11-14T19:30:29.388Z,95751.64
2018-11-14T19:32:59.328Z,95750.30
2018-11-14T19:35:28.622Z,95753.11
2018-11-14T19:37:58.207Z,95746.94
2018-11-14T19:40:31.615Z,95746.34
2018-11-14T19:43:02.075Z,95742.23
2018-11-14T19:45:33.590Z,95743.00
2018-11-14T19:48:03.018Z,95744.90
2018-11-14T19:50:32.861Z,95737.73
2018-11-14T19:53:02.043Z,95748.69
2018-11-14T19:55:31.487Z,95752.09
2018-11-14T19:58:01.834Z,95746.44
2018-11-14T20:00:39.463Z,95749.88
2018-11-14T20:03:09.421Z,95747.46
2018-11-14T20:05:38.651Z,95744.62
2018-11-14T20:08:08.066Z,95751.25
2018-11-14T20:10:37.313Z,95740.23
2018-11-14T20:13:06.558Z,95738.44
2018-11-14T20:15:37.117Z,95749.50
2018-11-14T20:18:06.883Z,95741.98
2018-11-14T20:20:37.182Z,95741.98
2018-11-14T20:23:06.628Z,95744.68
2018-11-14T20:25:36.102Z,95742.89
2018-11-14T20:28:05.619Z,95740.95
2018-11-14T20:30:36.503Z,95743.16
2018-11-14T20:33:07.986Z,95739.38
2018-11-14T20:35:37.238Z,95732.59
2018-11-14T20:38:06.930Z,95736.69
2018-11-14T20:40:41.159Z,95719.64
2018-11-14T20:43:10.541Z,95722.45
2018-11-14T20:45:39.846Z,95720.11
2018-11-14T20:48:09.026Z,95714.70
2018-11-14T20:50:38.438Z,95711.55
2018-11-14T20:53:08.822Z,95718.67
2018-11-14T20:55:38.067Z,95715.02
2018-11-14T20:58:07.339Z,95711.43
2018-11-14T21:00:37.528Z,95712.45
2018-11-14T21:03:07.700Z,95705.26
2018-11-14T21:05:37.163Z,95710.06
2018-11-14T21:08:06.929Z,95702.30
2018-11-14T21:10:36.479Z,95701.79
2018-11-14T21:13:06.360Z,95705.53
2018-11-14T21:15:37.128Z,95706.51
2018-11-14T21:18:07.114Z,95698.69
2018-11-14T21:20:36.572Z,95698.12
2018-11-14T21:23:07.018Z,95702.41
2018-11-14T21:25:36.367Z,95712.58
2018-11-14T21:28:06.159Z,95705.84
2018-11-14T21:30:35.636Z,95697.84
2018-11-14T21:33:05.277Z,95697.00
2018-11-14T21:35:36.012Z,95701.80
2018-11-14T21:38:06.532Z,95703.22
2018-11-14T21:40:35.773Z,95707.30
2018-11-14T21:43:04.881Z,95712.80
2018-11-14T21:45:34.314Z,95702.37
2018-11-14T21:48:08.764Z,95706.41
2018-11-14T21:50:38.146Z,95704.59
2018-11-14T21:53:07.474Z,95700.58
2018-11-14T21:55:36.686Z,95698.40
2018-11-14T21:58:06.139Z,95700.54
2018-11-14T22:00:37.161Z,95702.16
2018-11-14T22:03:07.158Z,95693.14
2018-11-14T22:05:36.588Z,95693.27
2018-11-14T22:08:05.870Z,95692.95
2018-11-14T22:10:35.073Z,95684.84
2018-11-14T22:13:04.398Z,95681.06
2018-11-14T22:15:34.022Z,95683.62
2018-11-14T22:18:03.321Z,95686.53
2018-11-14T22:20:32.519Z,95678.87
2018-11-14T22:23:01.813Z,95673.40
2018-11-14T22:25:31.220Z,95673.48
2018-11-14T22:28:00.494Z,95672.67
2018-11-14T22:30:31.710Z,95675.27
2018-11-14T22:33:01.166Z,95677.23
2018-11-14T22:35:31.552Z,95681.06
2018-11-14T22:38:00.791Z,95673.97
2018-11-14T22:40:31.206Z,95666.84
2018-11-14T22:43:00.278Z,95672.25
2018-11-14T22:45:32.226Z,95665.69
2018-11-14T22:48:01.470Z,95666.28
2018-11-14T22:50:30.682Z,95663.30
2018-11-14T22:52:59.846Z,95661.50
2018-11-14T22:55:28.726Z,95651.44
2018-11-14T22:57:57.944Z,95661.11
2018-11-14T23:00:34.417Z,95656.73
2018-11-14T23:03:04.055Z,95650.76
2018-11-14T23:05:33.487Z,95645.11
2018-11-14T23:08:02.686Z,95648.34
2018-11-14T23:10:31.854Z,95643.05
2018-11-14T23:13:01.011Z,95638.67
2018-11-14T23:15:30.493Z,95640.81
2018-11-14T23:17:59.748Z,95635.91
2018-11-14T23:20:29.149Z,95636.39
2018-11-14T23:22:58.493Z,95648.22
2018-11-14T23:25:27.752Z,95636.95
2018-11-14T23:27:57.450Z,95644.28
2018-11-14T23:30:27.556Z,95633.62
2018-11-14T23:32:57.431Z,95634.98
2018-11-14T23:35:30.605Z,95636.21
2018-11-14T23:38:01.221Z,95622.92
2018-11-14T23:40:30.589Z,95633.37
2018-11-14T23:42:59.794Z,95637.62
2018-11-14T23:45:29.576Z,95627.63
2018-11-14T23:47:58.943Z,95631.13
2018-11-14T23:50:31.144Z,95643.20
2018-11-14T23:53:01.571Z,95638.81
2018-11-14T23:55:31.527Z,95637.77
2018-11-14T23:58:01.140Z,95630.00
